Portada
METAR-TAF:

METAR-TAF

Aeropuertos :

Yamena, Chad

Aeropuerto Internacional de Yamena

latitud: 12-08N, longitud: 015-02E, altitud: 295 m

Observación

El informe se hizo hace 1 hora y 40 minutos, a las 22:00 UTC
Viento 5 kt del norte
Temperatura 26°C
Humedad 26%
Presión 1012 hPa
Visibilidad 10 km o más
sin nubes por debajo de 1500 m y sin presencia de cumulonimbus.

METAR: FTTJ 202200Z 01005KT CAVOK 26/05 Q1012 NOSIG

Hora: 00:40 (23:40 UTC)

Pronóstico

El informe se hizo hace 6 horas y 40 minutos, a las 17:00 UTC
Pronóstico válido del 20 a las 18 UTC al 21 a las 24 UTC
Viento 7 kt del norte-noreste
Visibilidad: 8000 m

TAF: FTTJ 201700Z 2018/2124 02007KT 8000 NSC

Observaciones y pronósticos meteorológicos de más de 4000 aeropuertos (mensajes METAR y TAF).

Los puntos amarillos y rojos representan las estaciones disponibles.

Ponga el ratón en el punto deseado para ver el nombre de la estación.

Haga clic para ver las observaciones y los pronósticos meteorológicos.

Para cambiar el mapa : haga clic en los botones verdes con una cruz de color negro para hacer un zoom, en el botón verde con un guión para alejar o en las flechas verdes para mapas adyacentes.


METAR-TAF: